createdAt,value
2022-08-09T00:00:44.436Z,60.83
2022-08-09T00:01:43.189Z,61.13
2022-08-09T00:02:42.959Z,60.85
2022-08-09T00:04:05.476Z,61.56
2022-08-09T00:04:40.917Z,61.46
2022-08-09T00:06:18.996Z,62.06
2022-08-09T00:06:40.905Z,62.16
2022-08-09T00:07:44.550Z,62.26
2022-08-09T00:08:39.894Z,62.06
2022-08-09T00:09:39.875Z,62.57
2022-08-09T00:10:39.865Z,62.70
2022-08-09T00:12:04.346Z,62.57
2022-08-09T00:12:40.831Z,62.87
2022-08-09T00:13:40.836Z,62.66
2022-08-09T00:14:39.828Z,63.50
2022-08-09T00:15:58.895Z,63.57
2022-08-09T00:16:40.799Z,63.60
2022-08-09T00:18:05.943Z,63.37
2022-08-09T00:18:40.808Z,63.50
2022-08-09T00:19:39.777Z,63.37
2022-08-09T00:20:42.554Z,63.37
2022-08-09T00:21:43.137Z,63.40
2022-08-09T00:22:40.745Z,62.90
2022-08-09T00:23:57.103Z,63.07
2022-08-09T00:24:40.722Z,62.90
2022-08-09T00:25:39.704Z,63.00
2022-08-09T00:26:39.704Z,62.87
2022-08-09T00:27:43.060Z,64.01
2022-08-09T00:28:39.738Z,63.90
2022-08-09T00:30:24.543Z,63.81
2022-08-09T00:30:40.662Z,63.90
2022-08-09T00:31:59.295Z,63.50
2022-08-09T00:32:41.066Z,63.30
2022-08-09T00:33:50.598Z,63.27
2022-08-09T00:34:40.619Z,63.70
2022-08-09T00:35:43.360Z,63.81
2022-08-09T00:36:40.083Z,63.30
2022-08-09T00:37:39.583Z,63.90
2022-08-09T00:38:39.597Z,64.21
2022-08-09T00:40:12.188Z,63.90
2022-08-09T00:40:40.572Z,64.21
2022-08-09T00:44:10.557Z,64.61
2022-08-09T00:44:10.787Z,65.01
2022-08-09T00:44:11.382Z,64.21
2022-08-09T00:44:40.568Z,64.61
2022-08-09T00:45:39.513Z,64.72
2022-08-09T00:46:56.476Z,64.95
2022-08-09T00:47:40.496Z,64.81
2022-08-09T00:48:39.491Z,64.95
2022-08-09T00:49:39.478Z,65.01
2022-08-09T00:50:39.466Z,64.72
2022-08-09T00:51:54.359Z,65.55
2022-08-09T00:52:40.440Z,65.75
2022-08-09T00:53:39.456Z,65.25
2022-08-09T00:54:39.420Z,65.25
2022-08-09T00:56:05.636Z,65.75
2022-08-09T00:56:40.397Z,65.05
2022-08-09T00:57:39.396Z,65.35
2022-08-09T00:58:39.401Z,65.15
2022-08-09T00:59:41.217Z,64.95
2022-08-09T01:00:39.359Z,64.75
2022-08-09T01:01:44.794Z,64.84
2022-08-09T01:02:40.347Z,65.45
2022-08-09T01:03:45.492Z,65.95
2022-08-09T01:04:39.342Z,65.75
2022-08-09T01:05:51.628Z,65.99
2022-08-09T01:06:54.334Z,66.36
2022-08-09T01:08:00.146Z,66.59
2022-08-09T01:08:40.301Z,65.95
2022-08-09T01:09:40.269Z,65.99
2022-08-09T01:10:39.262Z,66.19
2022-08-09T01:11:39.256Z,66.49
2022-08-09T01:12:39.242Z,66.49
2022-08-09T01:13:53.583Z,66.59
2022-08-09T01:14:40.250Z,66.39
2022-08-09T01:15:41.085Z,66.29
2022-08-09T01:16:40.205Z,66.59
2022-08-09T01:17:40.196Z,66.02
2022-08-09T01:18:39.185Z,66.89
2022-08-09T01:19:40.278Z,66.39
2022-08-09T01:20:39.155Z,66.79
2022-08-09T01:21:44.687Z,66.39
2022-08-09T01:22:40.144Z,66.29
2022-08-09T01:24:01.868Z,66.72
2022-08-09T01:24:40.131Z,66.62
2022-08-09T01:25:41.683Z,67.13
2022-08-09T01:26:39.109Z,67.02
2022-08-09T01:27:39.093Z,67.43
2022-08-09T01:28:39.071Z,67.43
2022-08-09T01:29:41.096Z,67.43
2022-08-09T01:30:51.922Z,67.33
2022-08-09T01:32:31.576Z,67.53
2022-08-09T01:34:34.958Z,67.63
2022-08-09T01:35:37.322Z,67.76
2022-08-09T01:36:25.160Z,67.86
2022-08-09T01:37:43.188Z,67.73
2022-08-09T01:38:25.141Z,68.04
2022-08-09T01:39:25.275Z,67.66
2022-08-09T01:40:28.545Z,67.86
2022-08-09T01:41:26.089Z,67.76
2022-08-09T01:42:25.269Z,67.63
2022-08-09T01:43:25.209Z,67.73
2022-08-09T01:44:25.210Z,67.97
2022-08-09T01:45:25.192Z,68.17
2022-08-09T01:46:27.113Z,68.17
2022-08-09T01:47:25.169Z,68.37
2022-08-09T01:48:31.360Z,68.17
2022-08-09T01:49:26.168Z,68.37
2022-08-09T01:50:29.971Z,68.37
2022-08-09T01:51:26.327Z,68.17
2022-08-09T01:52:25.164Z,68.37
2022-08-09T01:53:28.905Z,68.27
2022-08-09T01:54:25.105Z,68.51
2022-08-09T01:55:25.087Z,68.27
2022-08-09T01:56:25.085Z,68.80
2022-08-09T01:57:25.062Z,68.71
2022-08-09T01:58:25.043Z,68.80
2022-08-09T01:59:25.095Z,68.71
2022-08-09T02:00:35.675Z,68.80
2022-08-09T02:01:36.178Z,68.80
2022-08-09T02:02:31.071Z,68.91
2022-08-09T02:03:26.008Z,69.11
2022-08-09T02:04:25.012Z,69.31
2022-08-09T02:05:35.582Z,69.51
2022-08-09T02:06:25.981Z,69.42
2022-08-09T02:08:40.051Z,69.42
2022-08-09T02:08:40.512Z,69.21
2022-08-09T02:09:25.955Z,68.91
2022-08-09T02:10:30.294Z,69.71
2022-08-09T02:11:24.930Z,69.01
2022-08-09T02:12:25.923Z,69.21
2022-08-09T02:13:25.918Z,68.91
2022-08-09T02:14:26.672Z,69.62
2022-08-09T02:15:24.882Z,69.55
2022-08-09T02:16:33.747Z,69.71
2022-08-09T02:18:09.425Z,69.71
2022-08-09T02:18:25.851Z,69.95
2022-08-09T02:19:24.861Z,69.95
2022-08-09T02:20:32.569Z,69.95
2022-08-09T02:21:25.830Z,70.36
2022-08-09T02:22:27.223Z,70.96
2022-08-09T02:23:25.805Z,70.69
2022-08-09T02:24:26.755Z,70.76
2022-08-09T02:25:24.782Z,71.09
2022-08-09T02:26:27.097Z,71.30
2022-08-09T02:27:43.156Z,71.30
2022-08-09T02:28:25.777Z,71.37
2022-08-09T02:29:24.762Z,70.79
2022-08-09T02:30:26.472Z,71.40
2022-08-09T02:31:24.728Z,71.13
2022-08-09T02:32:24.766Z,71.30
2022-08-09T02:33:38.107Z,71.91
2022-08-09T02:34:40.922Z,71.64
2022-08-09T02:36:01.885Z,72.34
2022-08-09T02:36:56.582Z,71.50
2022-08-09T02:37:24.657Z,72.65
2022-08-09T02:38:28.799Z,71.94
2022-08-09T02:39:39.711Z,72.14
2022-08-09T02:40:27.000Z,72.34
2022-08-09T02:41:24.617Z,72.04
2022-08-09T02:42:24.970Z,72.44
2022-08-09T02:43:24.610Z,72.55
2022-08-09T02:44:29.390Z,72.34
2022-08-09T02:45:26.646Z,72.28
2022-08-09T02:46:24.568Z,72.34
2022-08-09T02:47:24.587Z,72.24
2022-08-09T02:48:30.715Z,72.78
2022-08-09T02:49:27.226Z,72.88
2022-08-09T02:50:25.544Z,72.88
2022-08-09T02:51:26.558Z,72.58
2022-08-09T02:52:24.579Z,72.48
2022-08-09T02:53:26.185Z,72.52
2022-08-09T02:54:24.511Z,73.09
2022-08-09T02:55:24.490Z,72.99
2022-08-09T02:56:25.484Z,73.43
2022-08-09T02:57:25.192Z,73.32
2022-08-09T02:58:37.173Z,73.63
2022-08-09T02:59:26.303Z,73.93
2022-08-09T03:00:26.366Z,73.83
2022-08-09T03:01:29.398Z,73.83
2022-08-09T03:02:25.506Z,74.33
2022-08-09T03:04:05.812Z,73.83
2022-08-09T03:04:28.766Z,73.83
2022-08-09T03:05:24.392Z,74.33
2022-08-09T03:06:25.055Z,74.13
2022-08-09T03:07:24.374Z,74.13
2022-08-09T03:08:24.371Z,74.33
2022-08-09T03:09:24.381Z,74.68
2022-08-09T03:10:24.335Z,74.77
2022-08-09T03:11:30.194Z,75.25
2022-08-09T03:12:25.450Z,75.04
2022-08-09T03:13:24.305Z,74.77
2022-08-09T03:14:28.275Z,74.44
2022-08-09T03:15:24.297Z,74.84
2022-08-09T03:16:25.289Z,75.04
2022-08-09T03:17:27.103Z,74.74
2022-08-09T03:18:31.115Z,74.98
2022-08-09T03:19:59.519Z,74.88
2022-08-09T03:20:25.249Z,75.08
2022-08-09T03:21:25.861Z,75.18
2022-08-09T03:22:42.216Z,75.08
2022-08-09T03:23:25.213Z,75.18
2022-08-09T03:24:31.431Z,75.89
2022-08-09T03:25:56.862Z,75.18
2022-08-09T03:26:30.871Z,75.28
2022-08-09T03:27:25.182Z,75.69
2022-08-09T03:28:24.167Z,76.13
2022-08-09T03:29:24.159Z,76.13
2022-08-09T03:30:33.975Z,76.03
2022-08-09T03:31:25.134Z,76.23
2022-08-09T03:32:24.126Z,76.03
2022-08-09T03:33:24.103Z,76.03
2022-08-09T03:34:24.107Z,76.33
2022-08-09T03:35:24.310Z,76.29
2022-08-09T03:36:27.352Z,76.74
2022-08-09T03:37:56.619Z,76.54
2022-08-09T03:38:28.717Z,76.33
2022-08-09T03:39:28.692Z,76.54
2022-08-09T03:40:31.100Z,76.94
2022-08-09T03:41:30.130Z,77.04
2022-08-09T03:42:30.896Z,77.04
2022-08-09T03:43:25.015Z,77.04
2022-08-09T03:44:31.935Z,76.94
2022-08-09T03:46:03.103Z,77.04
2022-08-09T03:46:29.178Z,77.04
2022-08-09T03:47:24.978Z,77.14
2022-08-09T03:48:30.740Z,77.14
2022-08-09T03:49:24.947Z,77.45
2022-08-09T03:50:27.931Z,76.94
2022-08-09T03:51:55.737Z,77.14
2022-08-09T03:52:24.939Z,77.45
2022-08-09T03:53:23.907Z,77.48
2022-08-09T03:54:29.230Z,77.75
2022-08-09T03:55:24.921Z,77.75
2022-08-09T03:56:23.882Z,77.89
2022-08-09T03:57:23.875Z,77.69
2022-08-09T03:58:23.858Z,77.95
2022-08-09T03:59:33.006Z,77.65
2022-08-09T04:00:24.931Z,78.09
2022-08-09T04:01:24.984Z,77.99
2022-08-09T04:02:30.313Z,77.79
2022-08-09T04:03:35.407Z,78.19
2022-08-09T04:04:24.801Z,78.40
2022-08-09T04:05:27.655Z,78.40
2022-08-09T04:06:23.813Z,78.40
2022-08-09T04:07:23.774Z,78.40
2022-08-09T04:08:28.919Z,78.30
2022-08-09T04:09:41.606Z,78.30
2022-08-09T04:10:29.461Z,78.30
2022-08-09T04:11:25.006Z,78.30
2022-08-09T04:12:30.566Z,78.50
2022-08-09T04:13:45.004Z,78.50
2022-08-09T04:14:53.185Z,78.50
2022-08-09T04:15:51.949Z,78.40
2022-08-09T04:16:24.683Z,78.40
2022-08-09T04:17:23.678Z,78.40
2022-08-09T04:18:24.907Z,78.60
2022-08-09T04:19:30.281Z,78.70
2022-08-09T04:20:24.642Z,78.60
2022-08-09T04:21:23.632Z,78.70
2022-08-09T04:22:23.650Z,78.70
2022-08-09T04:23:24.982Z,78.50
2022-08-09T04:24:24.618Z,78.60
2022-08-09T04:25:23.588Z,78.70
2022-08-09T04:26:23.653Z,78.40
2022-08-09T04:27:23.568Z,78.50
2022-08-09T04:28:33.526Z,78.60
2022-08-09T04:29:24.540Z,78.50
2022-08-09T04:30:23.574Z,78.50
2022-08-09T04:31:23.534Z,78.50
2022-08-09T04:32:33.679Z,78.50
2022-08-09T04:33:24.507Z,78.50
2022-08-09T04:34:30.722Z,78.30
2022-08-09T04:35:24.520Z,78.60
2022-08-09T04:36:23.520Z,78.50
2022-08-09T04:37:24.475Z,78.50
2022-08-09T04:38:24.471Z,78.50
2022-08-09T04:39:23.501Z,78.80
2022-08-09T04:40:36.077Z,78.70
2022-08-09T04:41:33.097Z,78.70
2022-08-09T04:42:23.434Z,78.46
2022-08-09T04:43:23.417Z,78.56
2022-08-09T04:44:23.404Z,78.66
2022-08-09T04:45:23.631Z,78.56
2022-08-09T04:46:36.564Z,78.60
2022-08-09T04:47:24.376Z,78.36
2022-08-09T04:48:23.900Z,78.26
2022-08-09T04:49:40.251Z,78.36
2022-08-09T04:50:24.352Z,78.26
2022-08-09T04:51:24.330Z,78.36
2022-08-09T04:52:26.945Z,78.46
2022-08-09T04:53:23.313Z,78.46
2022-08-09T04:54:23.306Z,78.33
2022-08-09T04:55:23.314Z,78.16
2022-08-09T04:56:26.261Z,77.82
2022-08-09T04:57:24.487Z,77.82
2022-08-09T04:58:23.264Z,77.82
2022-08-09T04:59:23.251Z,77.72
2022-08-09T05:00:23.247Z,77.92
2022-08-09T05:01:23.230Z,77.72
2022-08-09T05:02:23.222Z,77.61
2022-08-09T05:03:41.176Z,77.48
2022-08-09T05:04:31.080Z,77.37
2022-08-09T05:05:32.073Z,77.28
2022-08-09T05:06:27.847Z,77.07
2022-08-09T05:07:23.172Z,77.17
2022-08-09T05:08:23.155Z,77.14
2022-08-09T05:09:23.149Z,76.63
2022-08-09T05:10:23.151Z,76.53
2022-08-09T05:11:23.130Z,76.63
2022-08-09T05:12:24.128Z,76.12
2022-08-09T05:13:23.109Z,75.92
2022-08-09T05:14:23.097Z,75.92
2022-08-09T05:15:24.673Z,76.03
2022-08-09T05:16:28.438Z,75.58
2022-08-09T05:18:36.729Z,75.79
2022-08-09T05:18:38.208Z,75.58
2022-08-09T05:19:25.944Z,75.07
2022-08-09T05:20:24.059Z,75.58
2022-08-09T05:21:24.918Z,75.28
2022-08-09T05:22:36.272Z,75.38
2022-08-09T05:23:54.815Z,75.68
2022-08-09T05:24:24.180Z,74.87
2022-08-09T05:25:23.001Z,75.14
2022-08-09T05:26:35.780Z,74.74
2022-08-09T05:27:23.967Z,74.74
2022-08-09T05:28:22.949Z,75.04
2022-08-09T05:29:24.492Z,74.74
2022-08-09T05:30:23.950Z,74.63
2022-08-09T05:31:37.008Z,74.23
2022-08-09T05:32:23.929Z,74.90
2022-08-09T05:33:26.382Z,74.13
2022-08-09T05:34:30.127Z,74.70
2022-08-09T05:35:23.891Z,74.30
2022-08-09T05:36:22.861Z,73.90
2022-08-09T05:37:22.866Z,73.79
2022-08-09T05:38:22.861Z,74.26
2022-08-09T05:39:29.038Z,73.69
2022-08-09T05:40:22.839Z,73.15
2022-08-09T05:41:22.838Z,72.85
2022-08-09T05:42:27.973Z,72.64
2022-08-09T05:43:23.794Z,72.64
2022-08-09T05:44:29.061Z,72.61
2022-08-09T05:45:24.859Z,72.95
2022-08-09T05:46:22.764Z,72.51
2022-08-09T05:47:23.150Z,72.71
2022-08-09T05:48:27.853Z,72.51
2022-08-09T05:50:24.042Z,72.41
2022-08-09T05:50:43.938Z,72.31
2022-08-09T05:51:41.600Z,72.11
2022-08-09T05:52:24.868Z,71.91
2022-08-09T05:53:32.530Z,71.37
2022-08-09T05:54:23.755Z,71.40
2022-08-09T05:55:23.907Z,71.50
2022-08-09T05:56:22.981Z,70.96
2022-08-09T05:57:25.143Z,72.17
2022-08-09T05:58:23.650Z,71.57
2022-08-09T05:59:22.651Z,71.77
2022-08-09T06:00:22.627Z,71.97
2022-08-09T06:01:22.614Z,71.17
2022-08-09T06:02:22.669Z,72.04
2022-08-09T06:03:22.634Z,71.23
2022-08-09T06:04:23.408Z,71.23
2022-08-09T06:05:50.680Z,71.33
2022-08-09T06:06:23.563Z,70.73
2022-08-09T06:07:22.548Z,69.92
2022-08-09T06:08:24.848Z,70.93
2022-08-09T06:09:40.548Z,69.89
2022-08-09T06:10:23.552Z,69.48
2022-08-09T06:11:40.661Z,69.52
2022-08-09T06:12:26.345Z,69.52
2022-08-09T06:13:22.492Z,69.31
2022-08-09T06:14:22.492Z,69.11
2022-08-09T06:15:22.503Z,68.98
2022-08-09T06:16:22.461Z,68.71
2022-08-09T06:17:22.463Z,68.91
2022-08-09T06:18:24.816Z,69.18
2022-08-09T06:19:22.430Z,68.81
2022-08-09T06:20:22.444Z,68.57
2022-08-09T06:21:22.414Z,68.68
2022-08-09T06:22:28.595Z,68.54
2022-08-09T06:23:24.406Z,67.84
2022-08-09T06:24:23.372Z,67.94
2022-08-09T06:25:22.385Z,67.54
2022-08-09T06:26:22.723Z,68.04
2022-08-09T06:27:23.340Z,68.14
2022-08-09T06:28:22.335Z,68.34
2022-08-09T06:29:23.325Z,67.54
2022-08-09T06:30:22.339Z,67.54
2022-08-09T06:31:30.660Z,67.33
2022-08-09T06:32:59.898Z,67.03
2022-08-09T06:33:40.786Z,66.39
2022-08-09T06:34:25.976Z,66.50
2022-08-09T06:35:22.271Z,67.54
2022-08-09T06:36:27.165Z,66.70
2022-08-09T06:37:22.247Z,66.39
2022-08-09T06:38:31.873Z,67.30
2022-08-09T06:39:23.246Z,67.37
2022-08-09T06:40:24.484Z,67.37
2022-08-09T06:41:22.206Z,66.70
2022-08-09T06:42:24.985Z,66.36
2022-08-09T06:43:23.177Z,65.86
2022-08-09T06:44:22.172Z,66.27
2022-08-09T06:46:04.880Z,67.27
2022-08-09T06:46:40.501Z,66.77
2022-08-09T06:47:23.738Z,66.23
2022-08-09T06:48:30.528Z,65.83
2022-08-09T06:49:44.687Z,65.12
2022-08-09T06:50:23.134Z,65.22
2022-08-09T06:51:22.104Z,65.12
2022-08-09T06:52:23.530Z,65.02
2022-08-09T06:53:22.102Z,64.92
2022-08-09T06:54:22.076Z,65.90
2022-08-09T06:55:23.146Z,65.50
2022-08-09T06:56:31.037Z,65.70
2022-08-09T06:57:25.807Z,64.76
2022-08-09T06:58:40.703Z,64.66
2022-08-09T07:00:51.173Z,64.36
2022-08-09T07:00:55.798Z,63.05
2022-08-09T07:01:24.281Z,63.56
2022-08-09T07:02:22.050Z,63.25
2022-08-09T07:03:28.468Z,64.46
2022-08-09T07:04:21.971Z,63.22
2022-08-09T07:05:21.977Z,63.93
2022-08-09T07:06:21.952Z,64.13
2022-08-09T07:07:28.519Z,63.62
2022-08-09T07:08:22.938Z,63.09
2022-08-09T07:09:57.106Z,63.53
2022-08-09T07:10:31.308Z,63.73
2022-08-09T07:11:23.446Z,63.93
2022-08-09T07:12:21.884Z,63.59
2022-08-09T07:13:27.660Z,64.03
2022-08-09T07:14:26.366Z,63.76
2022-08-09T07:15:53.887Z,63.96
2022-08-09T07:16:41.263Z,63.85
2022-08-09T07:17:22.840Z,65.44
2022-08-09T07:18:21.827Z,63.22
2022-08-09T07:19:23.561Z,64.13
2022-08-09T07:20:21.822Z,63.09
2022-08-09T07:21:21.797Z,62.39
2022-08-09T07:22:27.665Z,62.36
2022-08-09T07:23:22.888Z,61.46
2022-08-09T07:24:21.760Z,62.56
2022-08-09T07:25:22.770Z,61.05
2022-08-09T07:26:21.749Z,61.02
2022-08-09T07:27:33.635Z,60.93
2022-08-09T07:28:26.410Z,60.42
2022-08-09T07:29:22.718Z,60.93
2022-08-09T07:30:24.505Z,60.82
2022-08-09T07:31:21.696Z,61.13
2022-08-09T07:32:21.691Z,60.52
2022-08-09T07:33:21.672Z,60.42
2022-08-09T07:34:21.685Z,61.02
2022-08-09T07:35:21.659Z,60.72
2022-08-09T07:36:22.080Z,60.12
2022-08-09T07:37:22.032Z,60.62
2022-08-09T07:38:21.626Z,60.72
2022-08-09T07:39:41.040Z,60.72
2022-08-09T07:40:26.756Z,59.79
2022-08-09T07:41:22.604Z,59.01
2022-08-09T07:42:21.581Z,60.19
2022-08-09T07:43:22.580Z,61.10
2022-08-09T07:44:24.201Z,60.19
2022-08-09T07:45:23.669Z,60.80
2022-08-09T07:46:22.568Z,59.64
2022-08-09T07:47:23.148Z,58.43
2022-08-09T07:48:25.461Z,57.73
2022-08-09T07:49:22.514Z,57.93
2022-08-09T07:50:21.601Z,57.63
2022-08-09T07:52:05.173Z,58.20
2022-08-09T07:52:22.508Z,58.00
2022-08-09T07:53:45.100Z,57.20
2022-08-09T07:54:28.241Z,58.18
2022-08-09T07:55:22.451Z,57.28
2022-08-09T07:56:27.175Z,56.37
2022-08-09T07:57:22.434Z,58.07
2022-08-09T07:58:26.329Z,57.07
2022-08-09T07:59:34.030Z,58.28
2022-08-09T08:00:36.130Z,57.87
2022-08-09T08:01:22.447Z,58.18
2022-08-09T08:02:22.445Z,57.78
2022-08-09T08:03:21.364Z,56.87
2022-08-09T08:04:31.184Z,56.74
2022-08-09T08:05:22.374Z,56.85
2022-08-09T08:06:21.456Z,55.82
2022-08-09T08:08:44.414Z,55.02
2022-08-09T08:09:02.524Z,53.12
2022-08-09T08:09:36.472Z,54.02
2022-08-09T08:10:22.321Z,55.40
2022-08-09T08:12:24.993Z,54.90
2022-08-09T08:12:27.738Z,55.49
2022-08-09T08:13:22.260Z,56.09
2022-08-09T08:14:24.032Z,54.49
2022-08-09T08:15:23.141Z,52.97
2022-08-09T08:16:29.691Z,52.67
2022-08-09T08:17:35.344Z,52.27
2022-08-09T08:18:22.225Z,52.47
2022-08-09T08:19:21.203Z,52.25
2022-08-09T08:20:29.283Z,52.74
2022-08-09T08:21:22.176Z,53.34
2022-08-09T08:22:24.249Z,54.67
2022-08-09T08:23:22.166Z,53.87
2022-08-09T08:24:21.165Z,53.24
2022-08-09T08:25:21.175Z,52.97
2022-08-09T08:26:26.487Z,53.67
2022-08-09T08:27:22.127Z,54.47
2022-08-09T08:28:32.459Z,54.74
2022-08-09T08:29:27.759Z,52.74
2022-08-09T08:30:22.123Z,52.55
2022-08-09T08:31:21.086Z,53.64
2022-08-09T08:32:28.665Z,51.64
2022-08-09T08:33:24.302Z,51.34
2022-08-09T08:34:21.062Z,51.45
2022-08-09T08:35:22.293Z,52.17
2022-08-09T08:36:28.359Z,52.84
2022-08-09T08:37:22.042Z,53.72
2022-08-09T08:38:21.052Z,53.02
2022-08-09T08:39:22.011Z,53.72
2022-08-09T08:40:21.023Z,52.04
2022-08-09T08:41:21.000Z,51.64
2022-08-09T08:42:24.268Z,52.25
2022-08-09T08:43:23.213Z,51.32
2022-08-09T08:44:26.971Z,52.52
2022-08-09T08:45:37.327Z,53.09
2022-08-09T08:46:33.288Z,52.87
2022-08-09T08:47:22.936Z,50.37
2022-08-09T08:48:20.929Z,48.88
2022-08-09T08:49:20.930Z,49.05
2022-08-09T08:50:20.913Z,48.93
2022-08-09T08:51:20.900Z,48.53
2022-08-09T08:52:52.997Z,49.63
2022-08-09T08:53:22.889Z,50.23
2022-08-09T08:54:29.663Z,48.93
2022-08-09T08:55:23.482Z,49.23
2022-08-09T08:56:27.221Z,48.53
2022-08-09T08:57:21.836Z,49.25
2022-08-09T08:58:27.076Z,49.13
2022-08-09T08:59:20.817Z,48.73
2022-08-09T09:00:27.878Z,48.63
2022-08-09T09:01:24.891Z,48.63
2022-08-09T09:02:30.664Z,48.43
2022-08-09T09:03:23.043Z,47.53
2022-08-09T09:04:27.250Z,46.91
2022-08-09T09:05:22.730Z,47.21
2022-08-09T09:06:21.742Z,47.59
2022-08-09T09:07:20.741Z,48.19
2022-08-09T09:08:30.419Z,47.86
2022-08-09T09:09:57.968Z,46.89
2022-08-09T09:10:21.691Z,46.99
2022-08-09T09:11:20.712Z,47.79
2022-08-09T09:12:20.688Z,46.97
2022-08-09T09:13:20.656Z,47.37
2022-08-09T09:14:20.657Z,47.17
2022-08-09T09:15:28.681Z,47.07
2022-08-09T09:16:30.515Z,46.97
2022-08-09T09:17:21.621Z,46.67
2022-08-09T09:18:20.622Z,46.57
2022-08-09T09:19:40.886Z,48.38
2022-08-09T09:20:22.608Z,47.56
2022-08-09T09:21:26.414Z,46.05
2022-08-09T09:22:26.681Z,46.35
2022-08-09T09:23:21.572Z,46.83
2022-08-09T09:24:22.148Z,46.23
2022-08-09T09:26:02.186Z,45.73
2022-08-09T09:26:21.554Z,45.63
2022-08-09T09:28:04.161Z,45.61
2022-08-09T09:29:02.276Z,44.24
2022-08-09T09:29:21.502Z,45.53
2022-08-09T09:30:39.979Z,43.62
2022-08-09T09:32:03.910Z,43.52
2022-08-09T09:32:35.255Z,43.62
2022-08-09T09:33:21.464Z,43.42
2022-08-09T09:34:20.461Z,44.22
2022-08-09T09:35:20.473Z,45.90
2022-08-09T09:36:22.005Z,46.42
2022-08-09T09:37:20.423Z,44.93
2022-08-09T09:38:27.862Z,46.33
2022-08-09T09:39:21.468Z,45.73
2022-08-09T09:40:20.447Z,45.23
2022-08-09T09:41:20.395Z,43.76
2022-08-09T09:42:20.382Z,45.85
2022-08-09T09:43:20.373Z,45.83
2022-08-09T09:44:25.250Z,45.01
2022-08-09T09:45:26.877Z,44.32
2022-08-09T09:47:22.340Z,44.16
2022-08-09T09:48:20.328Z,43.46
2022-08-09T09:49:23.523Z,44.04
2022-08-09T09:50:22.830Z,45.03
2022-08-09T09:51:26.076Z,43.54
2022-08-09T09:52:36.028Z,43.74
2022-08-09T09:53:21.289Z,44.54
2022-08-09T09:54:55.182Z,43.62
2022-08-09T09:55:28.065Z,43.72
2022-08-09T09:56:31.436Z,43.92
2022-08-09T09:58:01.185Z,43.70
2022-08-09T09:58:21.229Z,42.71
2022-08-09T09:59:20.216Z,42.88
2022-08-09T10:00:20.225Z,42.39
2022-08-09T10:01:31.292Z,42.09
2022-08-09T10:02:21.184Z,44.15
2022-08-09T10:03:20.191Z,42.37
2022-08-09T10:04:22.739Z,42.27
2022-08-09T10:05:27.172Z,41.38
2022-08-09T10:06:21.147Z,40.66
2022-08-09T10:07:20.142Z,43.14
2022-08-09T10:08:27.270Z,41.95
2022-08-09T10:09:23.332Z,42.45
2022-08-09T10:10:20.110Z,43.04
2022-08-09T10:11:53.955Z,41.95
2022-08-09T10:12:29.479Z,42.72
2022-08-09T10:13:24.629Z,40.74
2022-08-09T10:14:27.599Z,38.54
2022-08-09T10:15:50.728Z,39.83
2022-08-09T10:16:57.052Z,38.44
2022-08-09T10:17:39.539Z,38.62
2022-08-09T10:18:21.027Z,37.13
2022-08-09T10:19:20.025Z,37.63
2022-08-09T10:20:27.111Z,37.53
2022-08-09T10:21:21.049Z,37.63
2022-08-09T10:22:40.926Z,38.62
2022-08-09T10:23:22.018Z,38.40
2022-08-09T10:24:25.667Z,38.42
2022-08-09T10:25:21.084Z,37.41
2022-08-09T10:26:19.975Z,36.84
2022-08-09T10:27:22.981Z,37.32
2022-08-09T10:28:20.931Z,37.91
2022-08-09T10:29:36.122Z,37.43
2022-08-09T10:32:13.639Z,37.43
2022-08-09T10:32:48.362Z,38.40
2022-08-09T10:34:04.559Z,37.51
2022-08-09T10:34:33.885Z,36.62
2022-08-09T10:35:20.873Z,36.61
2022-08-09T10:36:20.507Z,37.49
2022-08-09T10:37:19.837Z,37.49
2022-08-09T10:38:34.421Z,37.28
2022-08-09T10:39:20.859Z,36.51
2022-08-09T10:40:33.752Z,37.89
2022-08-09T10:41:20.957Z,37.60
2022-08-09T10:42:19.795Z,37.40
2022-08-09T10:43:19.777Z,36.41
2022-08-09T10:44:21.724Z,37.10
2022-08-09T10:45:19.765Z,37.08
2022-08-09T10:46:24.828Z,37.66
2022-08-09T10:48:19.156Z,37.48
2022-08-09T10:48:30.172Z,36.31
2022-08-09T10:49:20.726Z,37.10
2022-08-09T10:50:27.043Z,34.83
2022-08-09T10:51:20.723Z,35.93
2022-08-09T10:52:20.775Z,37.41
2022-08-09T10:53:19.692Z,36.74
2022-08-09T10:54:19.680Z,37.24
2022-08-09T10:55:19.665Z,38.74
2022-08-09T10:56:22.939Z,37.85
2022-08-09T10:57:19.639Z,37.53
2022-08-09T10:58:25.574Z,37.04
2022-08-09T10:59:20.624Z,38.01
2022-08-09T11:00:19.621Z,37.41
2022-08-09T11:03:13.976Z,36.13
2022-08-09T11:03:14.173Z,36.41
2022-08-09T11:03:49.471Z,35.61
2022-08-09T11:04:30.564Z,35.91
2022-08-09T11:05:25.397Z,36.59
2022-08-09T11:06:19.582Z,36.59
2022-08-09T11:07:19.554Z,35.98
2022-08-09T11:08:19.539Z,35.19
2022-08-09T11:09:20.534Z,36.36
2022-08-09T11:10:19.525Z,35.76
2022-08-09T11:11:20.564Z,35.37
2022-08-09T11:12:20.061Z,33.98
2022-08-09T11:13:53.709Z,33.29
2022-08-09T11:14:28.193Z,33.11
2022-08-09T11:15:19.479Z,35.38
2022-08-09T11:16:34.839Z,34.61
2022-08-09T11:17:20.465Z,34.79
2022-08-09T11:18:19.455Z,34.38
2022-08-09T11:19:19.441Z,34.97
2022-08-09T11:20:23.089Z,35.05
2022-08-09T11:21:19.433Z,38.04
2022-08-09T11:22:24.301Z,34.58
2022-08-09T11:23:24.024Z,35.45
2022-08-09T11:24:20.404Z,35.35
2022-08-09T11:25:19.368Z,34.27
2022-08-09T11:26:20.974Z,35.64
2022-08-09T11:27:52.793Z,34.86
2022-08-09T11:28:30.461Z,33.58
2022-08-09T11:30:06.381Z,33.97
2022-08-09T11:30:32.550Z,35.04
2022-08-09T11:31:33.849Z,35.02
2022-08-09T11:32:20.312Z,33.94
2022-08-09T11:33:19.293Z,34.33
2022-08-09T11:34:19.291Z,35.10
2022-08-09T11:35:20.342Z,34.92
2022-08-09T11:36:30.290Z,34.92
2022-08-09T11:37:20.251Z,33.95
2022-08-09T11:38:19.250Z,35.35
2022-08-09T11:39:19.336Z,35.25
2022-08-09T11:40:19.233Z,36.04
2022-08-09T11:41:19.226Z,34.58
2022-08-09T11:42:19.211Z,35.17
2022-08-09T11:43:19.213Z,36.25
2022-08-09T11:44:19.196Z,34.67
2022-08-09T11:45:19.188Z,36.87
2022-08-09T11:46:33.163Z,34.69
2022-08-09T11:47:21.177Z,34.99
2022-08-09T11:48:26.201Z,35.66
2022-08-09T11:49:28.058Z,34.28
2022-08-09T11:50:56.241Z,34.78
2022-08-09T11:53:02.349Z,37.15
2022-08-09T11:53:02.473Z,35.96
2022-08-09T11:53:21.410Z,35.64
2022-08-09T11:54:28.693Z,34.94
2022-08-09T11:55:21.748Z,34.15
2022-08-09T11:56:20.146Z,35.33
2022-08-09T11:57:28.246Z,34.63
2022-08-09T11:58:20.054Z,32.75
2022-08-09T11:59:20.045Z,32.95
2022-08-09T12:00:22.857Z,32.84
2022-08-09T12:02:01.112Z,33.23
2022-08-09T12:02:37.150Z,33.53
2022-08-09T12:03:56.334Z,34.31
2022-08-09T12:04:20.760Z,36.29
2022-08-09T12:05:23.042Z,33.65
2022-08-09T12:06:18.992Z,34.17
2022-08-09T12:07:19.966Z,34.58
2022-08-09T12:08:21.600Z,33.70
2022-08-09T12:09:19.318Z,36.08
2022-08-09T12:10:38.511Z,35.49
2022-08-09T12:11:19.948Z,35.57
2022-08-09T12:12:20.204Z,35.47
2022-08-09T12:14:10.542Z,35.37
2022-08-09T12:14:28.706Z,35.07
2022-08-09T12:15:19.907Z,35.07
2022-08-09T12:16:37.721Z,35.15
2022-08-09T12:17:34.237Z,34.44
2022-08-09T12:18:26.048Z,34.15
2022-08-09T12:19:19.849Z,34.84
2022-08-09T12:20:22.341Z,33.25
2022-08-09T12:21:28.650Z,32.85
2022-08-09T12:22:19.819Z,32.85
2022-08-09T12:23:24.559Z,32.64
2022-08-09T12:24:19.813Z,32.14
2022-08-09T12:25:36.405Z,33.42
2022-08-09T12:26:26.237Z,32.04
2022-08-09T12:28:58.634Z,35.12
2022-08-09T12:29:11.259Z,35.52
2022-08-09T12:29:29.940Z,33.04
2022-08-09T12:30:37.025Z,33.04
2022-08-09T12:31:58.224Z,33.54
2022-08-09T12:32:19.723Z,32.85
2022-08-09T12:33:18.721Z,33.44
2022-08-09T12:34:18.702Z,32.73
2022-08-09T12:35:21.794Z,32.95
2022-08-09T12:36:32.001Z,31.90
2022-08-09T12:37:23.553Z,33.21
2022-08-09T12:38:37.385Z,33.92
2022-08-09T12:39:19.704Z,36.39
2022-08-09T12:40:18.885Z,34.58
2022-08-09T12:41:18.628Z,33.98
2022-08-09T12:42:18.648Z,33.47
2022-08-09T12:43:18.618Z,33.47
2022-08-09T12:44:18.620Z,33.47
2022-08-09T12:45:33.641Z,33.18
2022-08-09T12:46:19.603Z,31.99
2022-08-09T12:47:22.695Z,33.58
2022-08-09T12:48:28.059Z,32.57
2022-08-09T12:49:20.857Z,34.64
2022-08-09T12:50:19.697Z,33.95
2022-08-09T12:51:52.463Z,33.85
2022-08-09T12:52:19.566Z,33.47
2022-08-09T12:53:21.102Z,33.87
2022-08-09T12:54:19.507Z,33.29
2022-08-09T12:56:16.042Z,33.37
2022-08-09T12:56:39.292Z,31.78